Time,TemperatureF,DewpointF,PressureIn,WindDirection,WindDirectionDegrees,WindSpeedMPH,WindSpeedGustMPH,Humidity,HourlyPrecipIn,Conditions,Clouds,dailyrainin,SolarRadiationWatts/m^2,SoftwareType,DateUTC
2013-11-10 00:00:00,57.7,54.8,30.08,SSE,150,2.0,5.0,90,0.00,,SKC,0.00,0.00,VWS V14.01,2013-11-10 06:00:00,
2013-11-10 00:02:00,58.1,54.6,30.08,SSE,150,4.0,4.0,88,0.00,,SKC,0.00,0.00,VWS V14.01,2013-11-10 06:02:00,
2013-11-10 00:07:00,58.1,54.6,30.08,SSE,150,4.0,7.0,88,0.00,,SKC,0.00,0.00,VWS V14.01,2013-11-10 06:07:00,
2013-11-10 00:10:00,57.7,54.5,30.07,SSE,150,6.0,6.0,89,0.00,,SKC,0.00,0.00,VWS V14.01,2013-11-10 06:10:00,
2013-11-10 00:12:00,58.0,54.5,30.08,SSE,150,2.0,2.0,88,0.00,,SKC,0.00,0.00,VWS V14.01,2013-11-10 06:12:00,
2013-11-10 00:17:00,58.0,54.5,30.08,SSE,150,0.0,5.0,88,0.00,,SKC,0.00,0.00,VWS V14.01,2013-11-10 06:17:00,
2013-11-10 00:20:00,57.7,54.5,30.07,SSE,150,1.0,6.0,89,0.00,,SKC,0.00,0.00,VWS V14.01,2013-11-10 06:20:00,
2013-11-10 00:22:00,57.8,54.3,30.08,SSE,150,0.0,0.0,88,0.00,,SKC,0.00,0.00,VWS V14.01,2013-11-10 06:22:00,
2013-11-10 00:27:00,56.8,53.3,30.08,SSE,150,0.0,0.0,88,0.00,,SKC,0.00,0.00,VWS V14.01,2013-11-10 06:27:00,
2013-11-10 00:30:00,57.4,54.5,30.07,SSE,150,2.0,5.0,90,0.00,,SKC,0.00,0.00,VWS V14.01,2013-11-10 06:30:00,
2013-11-10 00:32:00,55.5,52.3,30.08,SSE,150,0.0,0.0,89,0.00,,SKC,0.00,0.00,VWS V14.01,2013-11-10 06:32:00,
2013-11-10 00:37:00,55.3,52.7,30.08,SSE,150,0.0,0.0,91,0.00,,SKC,0.00,0.00,VWS V14.01,2013-11-10 06:37:00,
2013-11-10 00:40:00,57.5,54.6,30.07,SSE,150,5.0,7.0,90,0.00,,SKC,0.00,0.00,VWS V14.01,2013-11-10 06:40:00,
2013-11-10 00:42:00,56.0,53.4,30.07,SSE,150,0.0,0.0,91,0.00,,SKC,0.00,0.00,VWS V14.01,2013-11-10 06:42:00,
2013-11-10 00:47:00,56.7,54.1,30.08,SSE,150,0.0,4.0,91,0.00,,SKC,0.00,0.00,VWS V14.01,2013-11-10 06:47:00,
2013-11-10 00:50:00,57.3,54.4,30.07,SSE,150,5.0,6.0,90,0.00,,SKC,0.00,0.00,VWS V14.01,2013-11-10 06:50:00,
2013-11-10 00:52:00,57.2,54.6,30.07,SSE,150,2.0,2.0,91,0.00,,SKC,0.00,0.00,VWS V14.01,2013-11-10 06:52:00,
2013-11-10 00:57:00,57.5,54.6,30.08,SSE,150,2.0,5.0,90,0.00,,SKC,0.00,0.00,VWS V14.01,2013-11-10 06:57:00,
2013-11-10 01:00:00,57.4,54.8,30.07,SSE,150,2.0,6.0,91,0.00,,SKC,0.00,0.00,VWS V14.01,2013-11-10 07:00:00,
2013-11-10 01:02:00,57.7,54.8,30.07,SSE,150,1.0,2.0,90,0.00,,SKC,0.00,0.00,VWS V14.01,2013-11-10 07:02:00,
2013-11-10 01:07:00,57.7,54.5,30.07,SSE,150,2.0,5.0,89,0.00,,SKC,0.00,0.00,VWS V14.01,2013-11-10 07:07:00,
2013-11-10 01:10:00,57.4,54.8,30.07,SSE,150,2.0,5.0,91,0.00,,SKC,0.00,0.00,VWS V14.01,2013-11-10 07:10:00,
2013-11-10 01:12:00,57.8,54.6,30.07,SSE,150,2.0,6.0,89,0.00,,SKC,0.00,0.00,VWS V14.01,2013-11-10 07:12:00,
2013-11-10 01:17:00,57.8,54.6,30.07,SSE,150,4.0,6.0,89,0.00,,SKC,0.00,0.00,VWS V14.01,2013-11-10 07:17:00,
2013-11-10 01:20:00,54.9,51.1,30.07,SSE,150,0.0,4.0,87,0.00,,SKC,0.00,0.00,VWS V14.01,2013-11-10 07:20:00,
2013-11-10 01:22:00,57.7,54.5,30.07,SSE,150,1.0,1.0,89,0.00,,SKC,0.00,0.00,VWS V14.01,2013-11-10 07:22:00,
2013-11-10 01:27:00,57.5,54.3,30.07,SSE,150,1.0,5.0,89,0.00,,SKC,0.00,0.00,VWS V14.01,2013-11-10 07:27:00,
2013-11-10 01:30:00,53.0,50.5,30.07,SSE,150,0.0,1.0,91,0.00,,SKC,0.00,0.00,VWS V14.01,2013-11-10 07:30:00,
2013-11-10 01:32:00,57.4,54.5,30.07,SSE,150,4.0,4.0,90,0.00,,SKC,0.00,0.00,VWS V14.01,2013-11-10 07:32:00,
2013-11-10 01:37:00,57.5,54.6,30.07,SSE,150,2.0,6.0,90,0.00,,SKC,0.00,0.00,VWS V14.01,2013-11-10 07:37:00,
2013-11-10 01:40:00,54.0,52.0,30.07,SSE,150,0.0,5.0,93,0.00,,SKC,0.00,0.00,VWS V14.01,2013-11-10 07:40:00,
2013-11-10 01:42:00,57.5,54.6,30.07,SSE,150,5.0,7.0,90,0.00,,SKC,0.00,0.00,VWS V14.01,2013-11-10 07:42:00,
2013-11-10 01:47:00,57.4,54.5,30.07,SSE,150,1.0,6.0,90,0.00,,SKC,0.00,0.00,VWS V14.01,2013-11-10 07:47:00,
2013-11-10 01:50:00,55.6,53.9,30.07,SSE,150,5.0,7.0,94,0.00,,SKC,0.00,0.00,VWS V14.01,2013-11-10 07:50:00,
2013-11-10 01:52:00,57.3,54.4,30.07,SSE,150,5.0,6.0,90,0.00,,SKC,0.00,0.00,VWS V14.01,2013-11-10 07:52:00,
2013-11-10 01:57:00,57.3,54.4,30.07,SSE,150,4.0,6.0,90,0.00,,SKC,0.00,0.00,VWS V14.01,2013-11-10 07:57:00,
2013-11-10 02:00:00,57.3,55.6,30.07,SSE,150,2.0,6.0,94,0.00,,SKC,0.00,0.00,VWS V14.01,2013-11-10 08:00:00,
2013-11-10 02:01:00,57.4,54.8,30.07,SSE,150,2.0,6.0,91,0.00,,SKC,0.00,0.00,VWS V14.01,2013-11-10 08:01:00,
2013-11-10 02:06:00,57.4,54.8,30.07,SSE,150,1.0,5.0,91,0.00,,SKC,0.00,0.00,VWS V14.01,2013-11-10 08:06:00,
2013-11-10 02:10:00,57.4,55.4,30.07,SSE,150,6.0,6.0,93,0.00,,SKC,0.00,0.00,VWS V14.01,2013-11-10 08:10:00,
2013-11-10 02:11:00,57.4,54.8,30.07,SSE,150,2.0,5.0,91,0.00,,SKC,0.00,0.00,VWS V14.01,2013-11-10 08:11:00,
2013-11-10 02:16:00,57.3,54.7,30.07,SSE,150,0.0,4.0,91,0.00,,SKC,0.00,0.00,VWS V14.01,2013-11-10 08:16:00,
2013-11-10 02:20:00,57.5,55.5,30.07,SSE,150,4.0,6.0,93,0.00,,SKC,0.00,0.00,VWS V14.01,2013-11-10 08:20:00,
2013-11-10 02:21:00,54.9,51.1,30.07,SSE,150,0.0,4.0,87,0.00,,SKC,0.00,0.00,VWS V14.01,2013-11-10 08:21:00,
2013-11-10 02:26:00,53.4,50.5,30.08,SSE,150,0.0,0.0,90,0.00,,SKC,0.00,0.00,VWS V14.01,2013-11-10 08:26:00,
2013-11-10 02:30:00,57.4,55.1,30.08,SSE,150,1.0,5.0,92,0.00,,SKC,0.00,0.00,VWS V14.01,2013-11-10 08:30:00,
2013-11-10 02:31:00,53.0,50.5,30.08,SSE,150,0.0,1.0,91,0.00,,SKC,0.00,0.00,VWS V14.01,2013-11-10 08:31:00,
2013-11-10 02:36:00,53.9,51.9,30.07,SSE,150,0.0,5.0,93,0.00,,SKC,0.00,0.00,VWS V14.01,2013-11-10 08:36:00,
2013-11-10 02:40:00,57.5,55.2,30.08,SSE,150,2.0,6.0,92,0.00,,SKC,0.00,0.00,VWS V14.01,2013-11-10 08:40:00,
2013-11-10 02:41:00,54.0,52.0,30.07,SSE,150,0.0,5.0,93,0.00,,SKC,0.00,0.00,VWS V14.01,2013-11-10 08:41:00,
2013-11-10 02:46:00,53.7,51.7,30.07,SSE,150,0.0,0.0,93,0.00,,SKC,0.00,0.00,VWS V14.01,2013-11-10 08:46:00,
2013-11-10 02:50:00,57.5,55.2,30.08,SSE,150,5.0,6.0,92,0.00,,SKC,0.00,0.00,VWS V14.01,2013-11-10 08:50:00,
2013-11-10 02:51:00,55.6,53.9,30.07,SSE,150,7.0,7.0,94,0.00,,SKC,0.00,0.00,VWS V14.01,2013-11-10 08:51:00,
2013-11-10 02:56:00,56.7,55.0,30.07,SSE,150,4.0,6.0,94,0.00,,SKC,0.00,0.00,VWS V14.01,2013-11-10 08:56:00,
2013-11-10 03:00:00,57.5,55.2,30.08,SSE,150,2.0,8.0,92,0.00,,SKC,0.00,0.00,VWS V14.01,2013-11-10 09:00:00,
2013-11-10 03:01:00,57.3,55.6,30.07,SSE,150,2.0,6.0,94,0.00,,SKC,0.00,0.00,VWS V14.01,2013-11-10 09:01:00,
2013-11-10 03:06:00,57.4,55.7,30.07,SSE,150,2.0,5.0,94,0.00,,SKC,0.00,0.00,VWS V14.01,2013-11-10 09:06:00,
2013-11-10 03:10:00,57.4,55.1,30.08,SSE,150,0.0,7.0,92,0.00,,SKC,0.00,0.00,VWS V14.01,2013-11-10 09:10:00,
2013-11-10 03:11:00,57.4,55.4,30.07,SSE,150,5.0,6.0,93,0.00,,SKC,0.00,0.00,VWS V14.01,2013-11-10 09:11:00,
2013-11-10 03:16:00,57.5,55.5,30.07,SSE,150,1.0,6.0,93,0.00,,SKC,0.00,0.00,VWS V14.01,2013-11-10 09:16:00,
2013-11-10 03:20:00,57.5,55.2,30.09,SSE,150,1.0,5.0,92,0.00,,SKC,0.00,0.00,VWS V14.01,2013-11-10 09:20:00,
2013-11-10 03:21:00,57.5,55.5,30.07,SSE,150,5.0,6.0,93,0.00,,SKC,0.00,0.00,VWS V14.01,2013-11-10 09:21:00,
2013-11-10 03:26:00,57.5,55.5,30.07,SSE,150,2.0,5.0,93,0.00,,SKC,0.00,0.00,VWS V14.01,2013-11-10 09:26:00,
2013-11-10 03:30:00,57.5,55.2,30.09,SSE,150,2.0,6.0,92,0.00,,SKC,0.00,0.00,VWS V14.01,2013-11-10 09:30:00,
2013-11-10 03:31:00,57.4,55.1,30.08,SSE,150,4.0,5.0,92,0.00,,SKC,0.00,0.00,VWS V14.01,2013-11-10 09:31:00,
2013-11-10 03:36:00,57.4,55.1,30.08,SSE,150,2.0,6.0,92,0.00,,SKC,0.00,0.00,VWS V14.01,2013-11-10 09:36:00,
2013-11-10 03:40:00,57.8,55.8,30.09,SSE,150,2.0,6.0,93,0.00,,SKC,0.00,0.00,VWS V14.01,2013-11-10 09:40:00,
2013-11-10 03:41:00,57.5,55.2,30.08,SSE,150,4.0,6.0,92,0.00,,SKC,0.00,0.00,VWS V14.01,2013-11-10 09:41:00,
2013-11-10 03:46:00,57.5,55.2,30.08,SSE,150,6.0,6.0,92,0.00,,SKC,0.00,0.00,VWS V14.01,2013-11-10 09:46:00,
2013-11-10 03:50:00,57.8,55.8,30.09,SSE,150,2.0,5.0,93,0.00,,SKC,0.00,0.00,VWS V14.01,2013-11-10 09:50:00,
2013-11-10 03:51:00,57.5,55.2,30.08,SSE,150,4.0,6.0,92,0.00,,SKC,0.00,0.00,VWS V14.01,2013-11-10 09:51:00,
2013-11-10 03:56:00,57.5,55.2,30.08,SSE,150,5.0,8.0,92,0.00,,SKC,0.00,0.00,VWS V14.01,2013-11-10 09:56:00,
2013-11-10 04:00:00,57.9,55.9,30.10,SSE,150,0.0,5.0,93,0.00,,SKC,0.00,0.00,VWS V14.01,2013-11-10 10:00:00,
2013-11-10 04:01:00,57.5,55.2,30.08,SSE,150,4.0,8.0,92,0.00,,SKC,0.00,0.00,VWS V14.01,2013-11-10 10:01:00,
2013-11-10 04:06:00,57.4,55.1,30.08,SSE,150,4.0,5.0,92,0.00,,SKC,0.00,0.00,VWS V14.01,2013-11-10 10:06:00,
2013-11-10 04:10:00,57.3,54.7,30.10,SSE,150,0.0,5.0,91,0.00,,SKC,0.00,0.00,VWS V14.01,2013-11-10 10:10:00,
2013-11-10 04:11:00,57.4,55.1,30.08,SSE,150,0.0,7.0,92,0.00,,SKC,0.00,0.00,VWS V14.01,2013-11-10 10:11:00,
2013-11-10 04:16:00,57.4,55.1,30.08,SSE,150,4.0,5.0,92,0.00,,SKC,0.00,0.00,VWS V14.01,2013-11-10 10:16:00,
2013-11-10 04:20:00,56.6,54.0,30.11,SSE,150,0.0,4.0,91,0.00,,SKC,0.00,0.00,VWS V14.01,2013-11-10 10:20:00,
2013-11-10 04:21:00,57.4,55.1,30.09,SSE,150,1.0,5.0,92,0.00,,SKC,0.00,0.00,VWS V14.01,2013-11-10 10:21:00,
2013-11-10 04:26:00,57.5,55.2,30.08,SSE,150,1.0,5.0,92,0.00,,SKC,0.00,0.00,VWS V14.01,2013-11-10 10:26:00,
2013-11-10 04:30:00,57.2,55.5,30.11,SSE,150,0.0,5.0,94,0.00,,SKC,0.00,0.00,VWS V14.01,2013-11-10 10:30:00,
2013-11-10 04:31:00,57.5,55.2,30.09,SSE,150,5.0,6.0,92,0.00,,SKC,0.00,0.00,VWS V14.01,2013-11-10 10:31:00,
2013-11-10 04:36:00,57.6,55.6,30.09,SSE,150,2.0,5.0,93,0.00,,SKC,0.00,0.00,VWS V14.01,2013-11-10 10:36:00,
2013-11-10 04:40:00,55.8,53.5,30.11,SSE,150,0.0,4.0,92,0.00,,SKC,0.00,0.00,VWS V14.01,2013-11-10 10:40:00,
2013-11-10 04:41:00,57.8,55.8,30.09,SSE,150,0.0,6.0,93,0.00,,SKC,0.00,0.00,VWS V14.01,2013-11-10 10:41:00,
2013-11-10 04:46:00,57.9,55.9,30.09,SSE,150,0.0,5.0,93,0.00,,SKC,0.00,0.00,VWS V14.01,2013-11-10 10:46:00,
2013-11-10 04:50:00,55.4,53.4,30.12,SSE,150,0.0,0.0,93,0.00,,SKC,0.00,0.00,VWS V14.01,2013-11-10 10:50:00,
2013-11-10 04:51:00,57.9,55.9,30.09,SSE,150,0.0,5.0,93,0.00,,SKC,0.00,0.00,VWS V14.01,2013-11-10 10:51:00,
2013-11-10 04:56:00,57.8,55.8,30.10,SSE,150,4.0,5.0,93,0.00,,SKC,0.00,0.00,VWS V14.01,2013-11-10 10:56:00,
2013-11-10 05:00:00,56.4,54.7,30.12,SSE,150,0.0,0.0,94,0.00,,SKC,0.00,0.00,VWS V14.01,2013-11-10 11:00:00,
2013-11-10 05:01:00,57.9,55.9,30.10,SSE,150,0.0,5.0,93,0.00,,SKC,0.00,0.00,VWS V14.01,2013-11-10 11:01:00,
2013-11-10 05:06:00,58.1,56.1,30.10,SSE,150,0.0,5.0,93,0.00,,SKC,0.00,0.00,VWS V14.01,2013-11-10 11:06:00,
2013-11-10 05:10:00,57.8,56.1,30.12,SSE,150,5.0,5.0,94,0.00,,SKC,0.00,0.00,VWS V14.01,2013-11-10 11:10:00,
2013-11-10 05:11:00,57.5,54.9,30.10,SSE,150,0.0,5.0,91,0.00,,SKC,0.00,0.00,VWS V14.01,2013-11-10 11:11:00,
2013-11-10 05:16:00,57.1,54.8,30.11,SSE,150,0.0,4.0,92,0.00,,SKC,0.00,0.00,VWS V14.01,2013-11-10 11:16:00,
2013-11-10 05:20:00,58.3,56.6,30.12,SSE,150,0.0,5.0,94,0.00,,SKC,0.00,0.00,VWS V14.01,2013-11-10 11:20:00,
2013-11-10 05:21:00,56.8,54.2,30.11,SSE,150,0.0,4.0,91,0.00,,SKC,0.00,0.00,VWS V14.01,2013-11-10 11:21:00,
2013-11-10 05:26:00,56.0,53.7,30.10,SSE,150,4.0,5.0,92,0.00,,SKC,0.00,0.00,VWS V14.01,2013-11-10 11:26:00,
2013-11-10 05:30:00,58.4,56.4,30.13,SSE,150,4.0,6.0,93,0.00,,SKC,0.00,0.00,VWS V14.01,2013-11-10 11:30:00,
2013-11-10 05:31:00,57.2,55.2,30.11,SSE,150,0.0,5.0,93,0.00,,SKC,0.00,0.00,VWS V14.01,2013-11-10 11:31:00,
2013-11-10 05:36:00,56.8,54.5,30.11,SSE,150,0.0,0.0,92,0.00,,SKC,0.00,0.00,VWS V14.01,2013-11-10 11:36:00,
2013-11-10 05:40:00,58.4,56.4,30.13,SSE,150,4.0,6.0,93,0.00,,SKC,0.00,0.00,VWS V14.01,2013-11-10 11:40:00,
2013-11-10 05:41:00,55.7,53.4,30.11,SSE,150,2.0,4.0,92,0.00,,SKC,0.00,0.00,VWS V14.01,2013-11-10 11:41:00,
2013-11-10 05:46:00,55.7,53.7,30.11,SSE,150,0.0,0.0,93,0.00,,SKC,0.00,0.00,VWS V14.01,2013-11-10 11:46:00,
2013-11-10 05:50:00,58.0,55.7,30.14,SSE,150,5.0,7.0,92,0.00,,SKC,0.00,0.00,VWS V14.01,2013-11-10 11:50:00,
2013-11-10 05:51:00,55.3,53.3,30.12,SSE,150,0.0,0.0,93,0.00,,SKC,0.00,0.00,VWS V14.01,2013-11-10 11:51:00,
2013-11-10 05:56:00,55.8,54.1,30.11,SSE,150,0.0,0.0,94,0.00,,SKC,0.00,0.00,VWS V14.01,2013-11-10 11:56:00,
2013-11-10 06:00:00,57.7,55.7,30.14,SSE,150,4.0,7.0,93,0.00,,SKC,0.00,0.00,VWS V14.01,2013-11-10 12:00:00,
2013-11-10 06:01:00,56.2,54.5,30.12,SSE,150,0.0,0.0,94,0.00,,SKC,0.00,0.00,VWS V14.01,2013-11-10 12:01:00,
2013-11-10 06:06:00,57.2,55.5,30.12,SSE,150,0.0,0.0,94,0.00,,SKC,0.00,0.00,VWS V14.01,2013-11-10 12:06:00,
2013-11-10 06:10:00,57.9,55.9,30.14,SSE,150,0.0,6.0,93,0.00,,SKC,0.00,9.00,VWS V14.01,2013-11-10 12:10:00,
2013-11-10 06:11:00,57.7,56.0,30.12,SSE,150,2.0,5.0,94,0.00,,SKC,0.00,0.00,VWS V14.01,2013-11-10 12:11:00,
2013-11-10 06:16:00,58.1,56.4,30.13,SSE,150,0.0,5.0,94,0.00,,SKC,0.00,0.00,VWS V14.01,2013-11-10 12:16:00,
2013-11-10 06:20:00,58.1,56.1,30.15,SSE,150,4.0,7.0,93,0.00,,SKC,0.00,11.00,VWS V14.01,2013-11-10 12:20:00,
2013-11-10 06:21:00,58.2,56.5,30.12,SSE,150,0.0,5.0,94,0.00,,SKC,0.00,0.00,VWS V14.01,2013-11-10 12:21:00,
2013-11-10 06:26:00,58.4,56.4,30.13,SSE,150,0.0,2.0,93,0.00,,SKC,0.00,0.00,VWS V14.01,2013-11-10 12:26:00,
2013-11-10 06:30:00,58.1,56.1,30.15,SSE,150,6.0,7.0,93,0.00,,SKC,0.00,25.00,VWS V14.01,2013-11-10 12:30:00,
2013-11-10 06:31:00,58.4,56.4,30.13,SSE,150,1.0,6.0,93,0.00,,SKC,0.00,0.00,VWS V14.01,2013-11-10 12:31:00,
2013-11-10 06:36:00,58.4,56.4,30.13,SSE,150,2.0,4.0,93,0.00,,SKC,0.00,0.00,VWS V14.01,2013-11-10 12:36:00,
2013-11-10 06:40:00,58.2,55.9,30.16,SSE,150,5.0,7.0,92,0.00,,SKC,0.00,40.00,VWS V14.01,2013-11-10 12:40:00,
2013-11-10 06:41:00,58.4,56.4,30.13,SSE,150,2.0,5.0,93,0.00,,SKC,0.00,0.00,VWS V14.01,2013-11-10 12:41:00,
2013-11-10 06:46:00,58.3,56.3,30.13,SSE,150,5.0,7.0,93,0.00,,SKC,0.00,0.00,VWS V14.01,2013-11-10 12:46:00,
2013-11-10 06:50:00,58.4,56.1,30.17,SSE,150,0.0,7.0,92,0.00,,SKC,0.00,42.00,VWS V14.01,2013-11-10 12:50:00,
2013-11-10 06:51:00,58.0,55.7,30.14,SSE,150,6.0,7.0,92,0.00,,SKC,0.00,0.00,VWS V14.01,2013-11-10 12:51:00,
2013-11-10 06:56:00,57.7,55.4,30.14,SSE,150,0.0,6.0,92,0.00,,SKC,0.00,0.00,VWS V14.01,2013-11-10 12:56:00,
2013-11-10 07:00:00,58.5,56.2,30.17,SSE,150,1.0,4.0,92,0.00,,SKC,0.00,56.00,VWS V14.01,2013-11-10 13:00:00,
2013-11-10 07:01:00,57.7,55.7,30.14,SSE,150,2.0,7.0,93,0.00,,SKC,0.00,0.00,VWS V14.01,2013-11-10 13:01:00,
2013-11-10 07:06:00,57.8,55.8,30.14,SSE,150,0.0,6.0,93,0.00,,SKC,0.00,5.00,VWS V14.01,2013-11-10 13:06:00,
2013-11-10 07:10:00,58.5,56.2,30.17,SSE,150,4.0,5.0,92,0.00,,SKC,0.00,70.00,VWS V14.01,2013-11-10 13:10:00,
2013-11-10 07:11:00,57.9,55.9,30.14,SSE,150,4.0,6.0,93,0.00,,SKC,0.00,9.00,VWS V14.01,2013-11-10 13:11:00,
2013-11-10 07:16:00,58.0,56.0,30.14,SSE,150,2.0,6.0,93,0.00,,SKC,0.00,9.00,VWS V14.01,2013-11-10 13:16:00,
2013-11-10 07:20:00,58.2,55.9,30.17,SSE,150,4.0,6.0,92,0.00,,SKC,0.00,84.00,VWS V14.01,2013-11-10 13:20:00,
2013-11-10 07:21:00,58.0,56.0,30.15,SSE,150,4.0,6.0,93,0.00,,SKC,0.00,11.00,VWS V14.01,2013-11-10 13:21:00,
2013-11-10 07:26:00,58.1,56.1,30.15,SSE,150,2.0,7.0,93,0.00,,SKC,0.00,19.00,VWS V14.01,2013-11-10 13:26:00,
2013-11-10 07:30:00,58.2,55.9,30.18,SSE,150,0.0,6.0,92,0.00,,SKC,0.00,83.00,VWS V14.01,2013-11-10 13:30:00,
2013-11-10 07:31:00,58.1,56.1,30.15,SSE,150,5.0,7.0,93,0.00,,SKC,0.00,25.00,VWS V14.01,2013-11-10 13:31:00,
2013-11-10 07:36:00,58.1,55.8,30.15,SSE,150,5.0,7.0,92,0.00,,SKC,0.00,32.00,VWS V14.01,2013-11-10 13:36:00,
2013-11-10 07:40:00,58.0,55.7,30.18,SSE,150,1.0,5.0,92,0.00,,SKC,0.00,95.00,VWS V14.01,2013-11-10 13:40:00,
2013-11-10 07:41:00,58.2,55.9,30.16,SSE,150,4.0,7.0,92,0.00,,SKC,0.00,37.00,VWS V14.01,2013-11-10 13:41:00,
2013-11-10 07:46:00,58.3,56.3,30.16,SSE,150,4.0,7.0,93,0.00,,SKC,0.00,46.00,VWS V14.01,2013-11-10 13:46:00,
2013-11-10 07:50:00,58.1,55.8,30.18,SSE,150,4.0,6.0,92,0.00,,SKC,0.00,95.00,VWS V14.01,2013-11-10 13:50:00,
2013-11-10 07:51:00,58.4,56.1,30.17,SSE,150,0.0,7.0,92,0.00,,SKC,0.00,44.00,VWS V14.01,2013-11-10 13:51:00,
2013-11-10 07:56:00,58.4,56.1,30.17,SSE,150,0.0,2.0,92,0.00,,SKC,0.00,42.00,VWS V14.01,2013-11-10 13:56:00,
2013-11-10 08:00:00,58.0,55.7,30.19,SSE,148,1.0,5.0,92,0.00,,SKC,0.00,65.00,VWS V14.01,2013-11-10 14:00:00,
2013-11-10 08:01:00,58.5,56.2,30.17,SSE,150,0.0,4.0,92,0.00,,SKC,0.00,53.00,VWS V14.01,2013-11-10 14:01:00,
2013-11-10 08:06:00,58.5,56.2,30.17,SSE,150,2.0,5.0,92,0.00,,SKC,0.00,77.00,VWS V14.01,2013-11-10 14:06:00,
2013-11-10 08:10:00,58.0,55.7,30.19,SSE,148,2.0,6.0,92,0.00,,SKC,0.00,97.00,VWS V14.01,2013-11-10 14:10:00,
2013-11-10 08:11:00,58.5,56.2,30.17,SSE,150,2.0,5.0,92,0.00,,SKC,0.00,76.00,VWS V14.01,2013-11-10 14:11:00,
2013-11-10 08:16:00,58.4,56.1,30.17,SSE,150,4.0,6.0,92,0.00,,SKC,0.00,83.00,VWS V14.01,2013-11-10 14:16:00,
2013-11-10 08:20:00,58.3,56.0,30.19,SSE,148,2.0,5.0,92,0.00,,SKC,0.00,109.00,VWS V14.01,2013-11-10 14:20:00,
2013-11-10 08:21:00,58.3,56.0,30.17,SSE,150,4.0,6.0,92,0.00,,SKC,0.00,84.00,VWS V14.01,2013-11-10 14:21:00,
2013-11-10 08:26:00,58.2,55.9,30.18,SSE,150,2.0,5.0,92,0.00,,SKC,0.00,97.00,VWS V14.01,2013-11-10 14:26:00,
2013-11-10 08:30:00,58.7,56.4,30.20,SSE,148,0.0,6.0,92,0.00,,SKC,0.00,114.00,VWS V14.01,2013-11-10 14:30:00,
2013-11-10 08:31:00,58.2,55.9,30.18,SSE,150,4.0,6.0,92,0.00,,SKC,0.00,79.00,VWS V14.01,2013-11-10 14:31:00,
2013-11-10 08:36:00,58.1,55.8,30.18,SSE,150,4.0,5.0,92,0.00,,SKC,0.00,84.00,VWS V14.01,2013-11-10 14:36:00,
2013-11-10 08:40:00,59.2,56.9,30.19,SSE,148,2.0,6.0,92,0.00,,SKC,0.00,134.00,VWS V14.01,2013-11-10 14:40:00,
2013-11-10 08:41:00,58.0,55.7,30.18,SSE,150,2.0,5.0,92,0.00,,SKC,0.00,95.00,VWS V14.01,2013-11-10 14:41:00,
2013-11-10 08:46:00,58.0,55.7,30.18,SSE,150,2.0,6.0,92,0.00,,SKC,0.00,91.00,VWS V14.01,2013-11-10 14:46:00,
2013-11-10 08:50:00,59.6,57.0,30.20,SSE,148,4.0,6.0,91,0.00,,SKC,0.00,141.00,VWS V14.01,2013-11-10 14:50:00,
2013-11-10 08:51:00,58.1,55.8,30.18,SSE,150,1.0,6.0,92,0.00,,SKC,0.00,91.00,VWS V14.01,2013-11-10 14:51:00,
2013-11-10 08:56:00,58.1,55.8,30.19,SSE,148,4.0,5.0,92,0.00,,SKC,0.00,93.00,VWS V14.01,2013-11-10 14:56:00,
2013-11-10 09:00:00,59.9,57.3,30.20,SSE,148,2.0,8.0,91,0.00,,SKC,0.00,160.00,VWS V14.01,2013-11-10 15:00:00,
2013-11-10 09:01:00,58.1,55.8,30.19,SSE,148,1.0,5.0,92,0.00,,SKC,0.00,67.00,VWS V14.01,2013-11-10 15:01:00,
2013-11-10 09:06:00,58.0,55.7,30.19,SSE,148,2.0,6.0,92,0.00,,SKC,0.00,69.00,VWS V14.01,2013-11-10 15:06:00,
2013-11-10 09:10:00,60.1,57.2,30.20,SSE,148,0.0,5.0,90,0.00,,SKC,0.00,113.00,VWS V14.01,2013-11-10 15:10:00,
2013-11-10 09:11:00,58.0,55.7,30.19,SSE,148,0.0,6.0,92,0.00,,SKC,0.00,91.00,VWS V14.01,2013-11-10 15:11:00,
2013-11-10 09:16:00,58.1,56.1,30.19,SSE,148,2.0,5.0,93,0.00,,SKC,0.00,91.00,VWS V14.01,2013-11-10 15:16:00,
2013-11-10 09:20:00,60.2,57.3,30.20,SSE,148,2.0,6.0,90,0.00,,SKC,0.00,100.00,VWS V14.01,2013-11-10 15:20:00,
2013-11-10 09:21:00,58.3,56.0,30.19,SSE,148,1.0,5.0,92,0.00,,SKC,0.00,109.00,VWS V14.01,2013-11-10 15:21:00,
2013-11-10 09:26:00,58.5,56.2,30.19,SSE,148,2.0,5.0,92,0.00,,SKC,0.00,125.00,VWS V14.01,2013-11-10 15:26:00,
2013-11-10 09:30:00,60.3,57.4,30.20,SSE,148,1.0,6.0,90,0.00,,SKC,0.00,118.00,VWS V14.01,2013-11-10 15:30:00,
2013-11-10 09:31:00,58.7,56.4,30.20,SSE,148,1.0,6.0,92,0.00,,SKC,0.00,120.00,VWS V14.01,2013-11-10 15:31:00,
2013-11-10 09:36:00,58.9,56.6,30.19,SSE,148,6.0,6.0,92,0.00,,SKC,0.00,123.00,VWS V14.01,2013-11-10 15:36:00,
2013-11-10 09:40:00,60.5,57.6,30.19,SSE,148,7.0,7.0,90,0.00,,SKC,0.00,134.00,VWS V14.01,2013-11-10 15:40:00,
2013-11-10 09:41:00,59.1,56.8,30.19,SSE,148,4.0,6.0,92,0.00,,SKC,0.00,142.00,VWS V14.01,2013-11-10 15:41:00,
2013-11-10 09:46:00,59.3,57.0,30.19,SSE,148,1.0,6.0,92,0.00,,SKC,0.00,142.00,VWS V14.01,2013-11-10 15:46:00,
2013-11-10 09:50:00,60.7,57.4,30.19,SSE,148,0.0,7.0,89,0.00,,SKC,0.00,220.00,VWS V14.01,2013-11-10 15:50:00,
2013-11-10 09:51:00,59.6,57.3,30.19,SSE,148,1.0,6.0,92,0.00,,SKC,0.00,144.00,VWS V14.01,2013-11-10 15:51:00,
2013-11-10 09:56:00,59.7,57.1,30.20,SSE,148,5.0,8.0,91,0.00,,SKC,0.00,146.00,VWS V14.01,2013-11-10 15:56:00,
2013-11-10 10:00:00,61.2,57.9,30.19,SSE,148,0.0,5.0,89,0.00,,SKC,0.00,188.00,VWS V14.01,2013-11-10 16:00:00,
2013-11-10 10:01:00,59.8,57.2,30.20,SSE,148,1.0,8.0,91,0.00,,SKC,0.00,160.00,VWS V14.01,2013-11-10 16:01:00,
2013-11-10 10:06:00,60.0,57.4,30.20,SSE,148,4.0,5.0,91,0.00,,SKC,0.00,155.00,VWS V14.01,2013-11-10 16:06:00,
2013-11-10 10:10:00,61.7,58.4,30.19,SSE,148,0.0,5.0,89,0.00,,SKC,0.00,169.00,VWS V14.01,2013-11-10 16:10:00,
2013-11-10 10:11:00,60.1,57.5,30.20,SSE,148,2.0,5.0,91,0.00,,SKC,0.00,114.00,VWS V14.01,2013-11-10 16:11:00,
2013-11-10 10:16:00,60.2,57.3,30.20,SSE,148,4.0,5.0,90,0.00,,SKC,0.00,107.00,VWS V14.01,2013-11-10 16:16:00,
2013-11-10 10:20:00,62.0,58.4,30.19,SSE,148,0.0,5.0,88,0.00,,SKC,0.00,141.00,VWS V14.01,2013-11-10 16:20:00,
2013-11-10 10:21:00,60.2,57.3,30.20,SSE,148,4.0,6.0,90,0.00,,SKC,0.00,104.00,VWS V14.01,2013-11-10 16:21:00,
2013-11-10 10:26:00,60.2,57.3,30.20,SSE,148,4.0,5.0,90,0.00,,SKC,0.00,104.00,VWS V14.01,2013-11-10 16:26:00,
2013-11-10 10:30:00,62.3,58.7,30.18,SSE,148,6.0,6.0,88,0.00,,SKC,0.00,302.00,VWS V14.01,2013-11-10 16:30:00,
2013-11-10 10:31:00,60.3,57.4,30.19,SSE,148,2.0,6.0,90,0.00,,SKC,0.00,116.00,VWS V14.01,2013-11-10 16:31:00,
2013-11-10 10:36:00,60.3,57.4,30.19,SSE,148,2.0,6.0,90,0.00,,SKC,0.00,113.00,VWS V14.01,2013-11-10 16:36:00,
2013-11-10 10:40:00,62.9,58.7,30.18,SSE,148,0.0,6.0,86,0.00,,SKC,0.00,218.00,VWS V14.01,2013-11-10 16:40:00,
2013-11-10 10:41:00,60.5,57.6,30.19,SSE,148,1.0,6.0,90,0.00,,SKC,0.00,132.00,VWS V14.01,2013-11-10 16:41:00,
2013-11-10 10:46:00,60.7,57.8,30.19,SSE,148,0.0,7.0,90,0.00,,SKC,0.00,163.00,VWS V14.01,2013-11-10 16:46:00,
2013-11-10 10:50:00,63.3,59.0,30.18,SSE,148,2.0,5.0,86,0.00,,SKC,0.00,278.00,VWS V14.01,2013-11-10 16:50:00,
2013-11-10 10:51:00,60.8,57.5,30.19,SSE,148,4.0,7.0,89,0.00,,SKC,0.00,216.00,VWS V14.01,2013-11-10 16:51:00,
2013-11-10 10:55:00,61.0,57.7,30.19,SSE,148,0.0,5.0,89,0.00,,SKC,0.00,221.00,VWS V14.01,2013-11-10 16:55:00,
2013-11-10 11:00:00,61.2,57.9,30.19,SSE,148,0.0,5.0,89,0.00,,SKC,0.00,181.00,VWS V14.01,2013-11-10 17:00:00,
2013-11-10 11:05:00,61.4,58.1,30.19,SSE,148,0.0,5.0,89,0.00,,SKC,0.00,199.00,VWS V14.01,2013-11-10 17:05:00,
2013-11-10 11:10:00,61.7,58.1,30.19,SSE,148,0.0,5.0,88,0.00,,SKC,0.00,171.00,VWS V14.01,2013-11-10 17:10:00,
2013-11-10 11:15:00,61.8,58.2,30.19,SSE,148,0.0,5.0,88,0.00,,SKC,0.00,139.00,VWS V14.01,2013-11-10 17:15:00,
2013-11-10 11:20:00,62.0,58.4,30.19,SSE,148,0.0,5.0,88,0.00,,SKC,0.00,141.00,VWS V14.01,2013-11-10 17:20:00,
2013-11-10 11:25:00,62.2,58.6,30.18,SSE,148,4.0,6.0,88,0.00,,SKC,0.00,151.00,VWS V14.01,2013-11-10 17:25:00,
2013-11-10 11:30:00,62.2,58.6,30.18,SSE,148,5.0,6.0,88,0.00,,SKC,0.00,255.00,VWS V14.01,2013-11-10 17:30:00,
2013-11-10 11:35:00,62.7,58.8,30.18,SSE,148,0.0,6.0,87,0.00,,SKC,0.00,283.00,VWS V14.01,2013-11-10 17:35:00,
2013-11-10 11:40:00,62.9,59.0,30.18,SSE,148,0.0,6.0,87,0.00,,SKC,0.00,230.00,VWS V14.01,2013-11-10 17:40:00,
2013-11-10 11:45:00,63.0,59.1,30.18,SSE,148,5.0,5.0,87,0.00,,SKC,0.00,225.00,VWS V14.01,2013-11-10 17:45:00,
2013-11-10 11:50:00,63.3,59.0,30.18,SSE,148,0.0,5.0,86,0.00,,SKC,0.00,262.00,VWS V14.01,2013-11-10 17:50:00,
2013-11-10 11:55:00,63.5,59.2,30.17,SSE,148,0.0,5.0,86,0.00,,SKC,0.00,350.00,VWS V14.01,2013-11-10 17:55:00,
2013-11-10 12:00:00,63.7,59.1,30.17,SSE,148,0.0,5.0,85,0.00,,SKC,0.00,278.00,VWS V14.01,2013-11-10 18:00:00,
2013-11-10 12:05:00,63.8,59.2,30.17,SSE,148,0.0,5.0,85,0.00,,SKC,0.00,302.00,VWS V14.01,2013-11-10 18:05:00,
2013-11-10 12:10:00,64.1,59.5,30.17,SSE,148,0.0,5.0,85,0.00,,SKC,0.00,336.00,VWS V14.01,2013-11-10 18:10:00,
2013-11-10 12:15:00,64.3,59.7,30.16,SSE,148,1.0,5.0,85,0.00,,SKC,0.00,403.00,VWS V14.01,2013-11-10 18:15:00,
2013-11-10 12:20:00,64.3,59.4,30.16,SSE,148,4.0,6.0,84,0.00,,SKC,0.00,371.00,VWS V14.01,2013-11-10 18:20:00,
2013-11-10 12:25:00,64.3,59.4,30.16,SSE,148,2.0,7.0,84,0.00,,SKC,0.00,255.00,VWS V14.01,2013-11-10 18:25:00,
2013-11-10 12:30:00,64.4,59.5,30.15,SSE,148,0.0,7.0,84,0.00,,SKC,0.00,253.00,VWS V14.01,2013-11-10 18:30:00,
2013-11-10 12:35:00,64.5,59.6,30.15,SSE,148,0.0,4.0,84,0.00,,SKC,0.00,269.00,VWS V14.01,2013-11-10 18:35:00,
2013-11-10 12:40:00,64.6,59.3,30.15,SSE,148,0.0,7.0,83,0.00,,SKC,0.00,322.00,VWS V14.01,2013-11-10 18:40:00,
2013-11-10 12:45:00,64.9,59.6,30.14,SSE,148,1.0,5.0,83,0.00,,SKC,0.00,306.00,VWS V14.01,2013-11-10 18:45:00,
2013-11-10 12:50:00,64.9,59.6,30.14,SSE,148,0.0,5.0,83,0.00,,SKC,0.00,239.00,VWS V14.01,2013-11-10 18:50:00,
2013-11-10 12:55:00,65.0,59.4,30.14,SSE,148,2.0,8.0,82,0.00,,SKC,0.00,308.00,VWS V14.01,2013-11-10 18:55:00,
2013-11-10 13:00:00,65.3,59.7,30.14,SSE,148,4.0,8.0,82,0.00,,SKC,0.00,313.00,VWS V14.01,2013-11-10 19:00:00,
2013-11-10 13:05:00,65.6,59.6,30.14,SSE,148,2.0,7.0,81,0.00,,SKC,0.00,309.00,VWS V14.01,2013-11-10 19:05:00,
2013-11-10 13:10:00,65.6,60.0,30.13,SSE,148,4.0,7.0,82,0.00,,SKC,0.00,278.00,VWS V14.01,2013-11-10 19:10:00,
2013-11-10 13:15:00,65.6,60.0,30.13,SSE,148,5.0,5.0,82,0.00,,SKC,0.00,239.00,VWS V14.01,2013-11-10 19:15:00,
2013-11-10 13:20:00,65.4,59.4,30.13,SSE,148,5.0,7.0,81,0.00,,SKC,0.00,255.00,VWS V14.01,2013-11-10 19:20:00,
2013-11-10 13:25:00,65.1,59.5,30.12,SSE,148,2.0,6.0,82,0.00,,SKC,0.00,311.00,VWS V14.01,2013-11-10 19:25:00,
2013-11-10 13:30:00,65.2,59.2,30.12,SSE,148,0.0,8.0,81,0.00,,SKC,0.00,334.00,VWS V14.01,2013-11-10 19:30:00,
2013-11-10 13:35:00,65.6,60.0,30.12,SSE,148,4.0,8.0,82,0.00,,SKC,0.00,330.00,VWS V14.01,2013-11-10 19:35:00,
2013-11-10 13:40:00,65.4,59.8,30.12,SSE,148,0.0,8.0,82,0.00,,SKC,0.00,274.00,VWS V14.01,2013-11-10 19:40:00,
2013-11-10 13:45:00,65.4,59.8,30.12,SSE,148,7.0,8.0,82,0.00,,SKC,0.00,253.00,VWS V14.01,2013-11-10 19:45:00,
2013-11-10 13:50:00,65.1,59.5,30.12,SSE,148,2.0,8.0,82,0.00,,SKC,0.00,271.00,VWS V14.01,2013-11-10 19:50:00,
2013-11-10 13:55:00,65.0,59.7,30.12,SSE,148,0.0,5.0,83,0.00,,SKC,0.00,269.00,VWS V14.01,2013-11-10 19:55:00,
2013-11-10 14:00:00,65.4,59.8,30.11,SSE,148,0.0,7.0,82,0.00,,SKC,0.00,207.00,VWS V14.01,2013-11-10 20:00:00,
2013-11-10 14:01:00,65.1,59.5,30.12,SSE,148,0.0,7.0,82,0.00,,SKC,0.00,267.00,VWS V14.01,2013-11-10 20:01:00,
2013-11-10 14:06:00,65.4,59.8,30.12,SSE,148,4.0,6.0,82,0.00,,SKC,0.00,272.00,VWS V14.01,2013-11-10 20:06:00,
2013-11-10 14:10:00,65.6,60.0,30.11,SSE,148,6.0,7.0,82,0.00,,SKC,0.00,239.00,VWS V14.01,2013-11-10 20:10:00,
2013-11-10 14:11:00,65.4,59.8,30.12,SSE,148,2.0,6.0,82,0.00,,SKC,0.00,229.00,VWS V14.01,2013-11-10 20:11:00,
2013-11-10 14:16:00,65.1,59.5,30.12,SSE,148,0.0,6.0,82,0.00,,SKC,0.00,218.00,VWS V14.01,2013-11-10 20:16:00,
2013-11-10 14:20:00,66.1,60.1,30.10,SSE,148,4.0,6.0,81,0.00,,SKC,0.00,297.00,VWS V14.01,2013-11-10 20:20:00,
2013-11-10 14:21:00,65.1,59.5,30.11,SSE,148,1.0,6.0,82,0.00,,SKC,0.00,206.00,VWS V14.01,2013-11-10 20:21:00,
2013-11-10 14:26:00,65.3,59.7,30.11,SSE,148,4.0,6.0,82,0.00,,SKC,0.00,169.00,VWS V14.01,2013-11-10 20:26:00,
2013-11-10 14:30:00,66.5,59.8,30.10,SSE,148,7.0,10.0,79,0.00,,SKC,0.00,202.00,VWS V14.01,2013-11-10 20:30:00,
2013-11-10 14:31:00,65.3,59.7,30.12,SSE,148,0.0,7.0,82,0.00,,SKC,0.00,151.00,VWS V14.01,2013-11-10 20:31:00,
2013-11-10 14:36:00,65.3,59.7,30.12,SSE,148,4.0,7.0,82,0.00,,SKC,0.00,134.00,VWS V14.01,2013-11-10 20:36:00,
2013-11-10 14:40:00,65.7,59.7,30.10,SSE,148,0.0,9.0,81,0.00,,SKC,0.00,128.00,VWS V14.01,2013-11-10 20:40:00,
2013-11-10 14:41:00,65.0,59.4,30.11,SSE,148,4.0,7.0,82,0.00,,SKC,0.00,155.00,VWS V14.01,2013-11-10 20:41:00,
2013-11-10 14:46:00,65.1,59.8,30.11,SSE,148,4.0,6.0,83,0.00,,SKC,0.00,199.00,VWS V14.01,2013-11-10 20:46:00,
2013-11-10 14:50:00,65.5,59.5,30.10,SSE,148,2.0,6.0,81,0.00,,SKC,0.00,128.00,VWS V14.01,2013-11-10 20:50:00,
2013-11-10 14:51:00,65.1,59.5,30.11,SSE,148,2.0,7.0,82,0.00,,SKC,0.00,204.00,VWS V14.01,2013-11-10 20:51:00,
2013-11-10 14:56:00,65.3,59.7,30.11,SSE,148,0.0,4.0,82,0.00,,SKC,0.00,211.00,VWS V14.01,2013-11-10 20:56:00,
2013-11-10 15:00:00,65.3,59.3,30.10,SSE,148,4.0,7.0,81,0.00,,SKC,0.00,100.00,VWS V14.01,2013-11-10 21:00:00,
2013-11-10 15:01:00,65.4,59.8,30.11,SSE,148,4.0,7.0,82,0.00,,SKC,0.00,207.00,VWS V14.01,2013-11-10 21:01:00,
2013-11-10 15:06:00,65.5,59.9,30.11,SSE,148,2.0,6.0,82,0.00,,SKC,0.00,216.00,VWS V14.01,2013-11-10 21:06:00,
2013-11-10 15:10:00,65.4,59.1,30.11,SSE,148,6.0,7.0,80,0.00,,SKC,0.00,111.00,VWS V14.01,2013-11-10 21:10:00,
2013-11-10 15:11:00,65.6,60.0,30.11,SSE,148,1.0,7.0,82,0.00,,SKC,0.00,234.00,VWS V14.01,2013-11-10 21:11:00,
2013-11-10 15:16:00,65.6,60.0,30.10,SSE,148,0.0,6.0,82,0.00,,SKC,0.00,258.00,VWS V14.01,2013-11-10 21:16:00,
2013-11-10 15:20:00,65.2,58.9,30.11,SSE,148,0.0,9.0,80,0.00,,SKC,0.00,95.00,VWS V14.01,2013-11-10 21:20:00,
2013-11-10 15:21:00,66.0,60.0,30.10,SSE,148,0.0,6.0,81,0.00,,SKC,0.00,297.00,VWS V14.01,2013-11-10 21:21:00,
2013-11-10 15:26:00,66.5,59.8,30.10,SSE,148,5.0,7.0,79,0.00,,SKC,0.00,362.00,VWS V14.01,2013-11-10 21:26:00,
2013-11-10 15:30:00,65.1,58.4,30.11,SSE,148,5.0,8.0,79,0.00,,SKC,0.00,97.00,VWS V14.01,2013-11-10 21:30:00,
2013-11-10 15:31:00,66.6,59.9,30.10,SSE,148,5.0,7.0,79,0.00,,SKC,0.00,220.00,VWS V14.01,2013-11-10 21:31:00,
2013-11-10 15:36:00,66.0,59.7,30.10,SSE,148,2.0,7.0,80,0.00,,SKC,0.00,134.00,VWS V14.01,2013-11-10 21:36:00,
2013-11-10 15:40:00,64.9,58.6,30.10,SSE,148,4.0,9.0,80,0.00,,SKC,0.00,81.00,VWS V14.01,2013-11-10 21:40:00,
2013-11-10 15:41:00,65.7,59.4,30.10,SSE,148,5.0,9.0,80,0.00,,SKC,0.00,128.00,VWS V14.01,2013-11-10 21:41:00,
2013-11-10 15:46:00,65.6,59.6,30.10,SSE,148,0.0,6.0,81,0.00,,SKC,0.00,137.00,VWS V14.01,2013-11-10 21:46:00,
2013-11-10 15:50:00,64.5,58.2,30.11,SSE,148,4.0,10.0,80,0.00,,SKC,0.00,65.00,VWS V14.01,2013-11-10 21:50:00,
2013-11-10 15:51:00,65.5,59.5,30.10,SSE,148,5.0,6.0,81,0.00,,SKC,0.00,137.00,VWS V14.01,2013-11-10 21:51:00,
2013-11-10 15:56:00,65.4,59.4,30.11,SSE,148,4.0,7.0,81,0.00,,SKC,0.00,97.00,VWS V14.01,2013-11-10 21:56:00,
2013-11-10 16:00:00,64.4,58.1,30.11,SSE,148,4.0,7.0,80,0.00,,SKC,0.00,51.00,VWS V14.01,2013-11-10 22:00:00,
2013-11-10 16:01:00,65.3,59.3,30.10,SSE,148,4.0,7.0,81,0.00,,SKC,0.00,98.00,VWS V14.01,2013-11-10 22:01:00,
2013-11-10 16:06:00,65.3,59.3,30.10,SSE,148,2.0,7.0,81,0.00,,SKC,0.00,104.00,VWS V14.01,2013-11-10 22:06:00,
2013-11-10 16:10:00,64.2,58.6,30.11,SSE,148,2.0,8.0,82,0.00,,SKC,0.00,51.00,VWS V14.01,2013-11-10 22:10:00,
2013-11-10 16:11:00,65.4,59.1,30.11,SSE,148,2.0,7.0,80,0.00,,SKC,0.00,111.00,VWS V14.01,2013-11-10 22:11:00,
2013-11-10 16:16:00,65.3,58.6,30.11,SSE,148,2.0,9.0,79,0.00,,SKC,0.00,104.00,VWS V14.01,2013-11-10 22:16:00,
2013-11-10 16:20:00,64.0,58.4,30.11,SSE,148,1.0,6.0,82,0.00,,SKC,0.00,26.00,VWS V14.01,2013-11-10 22:20:00,
2013-11-10 16:21:00,65.2,58.5,30.11,SSE,148,2.0,9.0,79,0.00,,SKC,0.00,95.00,VWS V14.01,2013-11-10 22:21:00,
2013-11-10 16:26:00,65.1,58.8,30.11,SSE,148,7.0,7.0,80,0.00,,SKC,0.00,128.00,VWS V14.01,2013-11-10 22:26:00,
2013-11-10 16:30:00,63.4,58.2,30.12,SSE,148,1.0,7.0,83,0.00,,SKC,0.00,11.00,VWS V14.01,2013-11-10 22:30:00,
2013-11-10 16:31:00,65.2,58.5,30.11,SSE,148,4.0,8.0,79,0.00,,SKC,0.00,97.00,VWS V14.01,2013-11-10 22:31:00,
2013-11-10 16:36:00,65.0,58.3,30.11,SSE,148,8.0,8.0,79,0.00,,SKC,0.00,93.00,VWS V14.01,2013-11-10 22:36:00,
2013-11-10 16:40:00,62.5,57.6,30.11,SSE,148,0.0,4.0,84,0.00,,SKC,0.00,0.00,VWS V14.01,2013-11-10 22:40:00,
2013-11-10 16:41:00,64.9,58.6,30.10,SSE,148,5.0,9.0,80,0.00,,SKC,0.00,84.00,VWS V14.01,2013-11-10 22:41:00,
2013-11-10 16:46:00,64.7,58.4,30.11,SSE,148,2.0,7.0,80,0.00,,SKC,0.00,70.00,VWS V14.01,2013-11-10 22:46:00,
2013-11-10 16:50:00,61.9,57.7,30.12,SSE,148,0.0,5.0,86,0.00,,SKC,0.00,0.00,VWS V14.01,2013-11-10 22:50:00,
2013-11-10 16:51:00,64.6,58.3,30.11,SSE,148,6.0,10.0,80,0.00,,SKC,0.00,72.00,VWS V14.01,2013-11-10 22:51:00,
2013-11-10 16:56:00,64.5,58.2,30.11,SSE,148,6.0,7.0,80,0.00,,SKC,0.00,76.00,VWS V14.01,2013-11-10 22:56:00,
2013-11-10 17:00:00,61.6,57.4,30.12,SSE,148,0.0,4.0,86,0.00,,SKC,0.00,0.00,VWS V14.01,2013-11-10 23:00:00,
2013-11-10 17:01:00,64.5,58.2,30.11,SSE,148,2.0,7.0,80,0.00,,SKC,0.00,54.00,VWS V14.01,2013-11-10 23:01:00,
2013-11-10 17:06:00,64.3,58.3,30.11,SSE,148,0.0,8.0,81,0.00,,SKC,0.00,42.00,VWS V14.01,2013-11-10 23:06:00,
2013-11-10 17:10:00,61.2,57.3,30.12,SSE,148,0.0,6.0,87,0.00,,SKC,0.00,0.00,VWS V14.01,2013-11-10 23:10:00,
2013-11-10 17:11:00,64.1,58.5,30.11,SSE,148,4.0,8.0,82,0.00,,SKC,0.00,51.00,VWS V14.01,2013-11-10 23:11:00,
2013-11-10 17:16:00,64.1,58.5,30.11,SSE,148,1.0,6.0,82,0.00,,SKC,0.00,44.00,VWS V14.01,2013-11-10 23:16:00,
2013-11-10 17:20:00,60.5,56.9,30.12,SSE,148,1.0,5.0,88,0.00,,SKC,0.00,0.00,VWS V14.01,2013-11-10 23:20:00,
2013-11-10 17:21:00,64.0,58.4,30.11,SSE,148,5.0,6.0,82,0.00,,SKC,0.00,28.00,VWS V14.01,2013-11-10 23:21:00,
2013-11-10 17:26:00,63.8,58.2,30.11,SSE,148,0.0,7.0,82,0.00,,SKC,0.00,18.00,VWS V14.01,2013-11-10 23:26:00,
2013-11-10 17:30:00,60.2,56.6,30.13,SSE,148,0.0,4.0,88,0.00,,SKC,0.00,0.00,VWS V14.01,2013-11-10 23:30:00,
2013-11-10 17:31:00,63.4,58.2,30.12,SSE,148,4.0,7.0,83,0.00,,SKC,0.00,12.00,VWS V14.01,2013-11-10 23:31:00,
2013-11-10 17:36:00,63.0,57.8,30.11,SSE,148,0.0,4.0,83,0.00,,SKC,0.00,7.00,VWS V14.01,2013-11-10 23:36:00,
2013-11-10 17:40:00,60.0,56.4,30.14,SSE,148,4.0,5.0,88,0.00,,SKC,0.00,0.00,VWS V14.01,2013-11-10 23:40:00,
2013-11-10 17:41:00,62.5,57.6,30.11,SSE,148,0.0,4.0,84,0.00,,SKC,0.00,5.00,VWS V14.01,2013-11-10 23:41:00,
2013-11-10 17:46:00,62.1,57.5,30.12,SSE,148,0.0,4.0,85,0.00,,SKC,0.00,0.00,VWS V14.01,2013-11-10 23:46:00,
2013-11-10 17:50:00,60.0,56.8,30.14,SSE,148,0.0,5.0,89,0.00,,SKC,0.00,0.00,VWS V14.01,2013-11-10 23:50:00,
2013-11-10 17:51:00,61.9,57.7,30.12,SSE,148,2.0,5.0,86,0.00,,SKC,0.00,0.00,VWS V14.01,2013-11-10 23:51:00,
2013-11-10 17:56:00,61.7,57.5,30.12,SSE,148,0.0,4.0,86,0.00,,SKC,0.00,0.00,VWS V14.01,2013-11-10 23:56:00,
2013-11-10 18:00:00,60.0,56.8,30.14,SSE,148,4.0,6.0,89,0.00,,SKC,0.00,0.00,VWS V14.01,2013-11-11 00:00:00,
2013-11-10 18:01:00,61.6,57.4,30.12,SSE,148,0.0,4.0,86,0.00,,SKC,0.00,0.00,VWS V14.01,2013-11-11 00:01:00,
2013-11-10 18:06:00,61.5,57.3,30.12,SSE,148,0.0,6.0,86,0.00,,SKC,0.00,0.00,VWS V14.01,2013-11-11 00:06:00,
2013-11-10 18:10:00,60.0,56.8,30.15,SSE,148,1.0,6.0,89,0.00,,SKC,0.00,0.00,VWS V14.01,2013-11-11 00:10:00,
2013-11-10 18:11:00,61.2,57.3,30.12,SSE,148,0.0,6.0,87,0.00,,SKC,0.00,0.00,VWS V14.01,2013-11-11 00:11:00,
2013-11-10 18:16:00,60.9,57.0,30.12,SSE,148,0.0,4.0,87,0.00,,SKC,0.00,0.00,VWS V14.01,2013-11-11 00:16:00,
2013-11-10 18:20:00,59.9,56.7,30.15,SSE,148,1.0,7.0,89,0.00,,SKC,0.00,0.00,VWS V14.01,2013-11-11 00:20:00,
2013-11-10 18:21:00,60.6,57.0,30.12,SSE,148,0.0,5.0,88,0.00,,SKC,0.00,0.00,VWS V14.01,2013-11-11 00:21:00,
2013-11-10 18:26:00,60.4,56.8,30.13,SSE,148,0.0,4.0,88,0.00,,SKC,0.00,0.00,VWS V14.01,2013-11-11 00:26:00,
2013-11-10 18:30:00,59.9,56.7,30.15,SSE,148,6.0,6.0,89,0.00,,SKC,0.00,0.00,VWS V14.01,2013-11-11 00:30:00,
2013-11-10 18:31:00,60.2,56.6,30.13,SSE,148,0.0,4.0,88,0.00,,SKC,0.00,0.00,VWS V14.01,2013-11-11 00:31:00,
2013-11-10 18:36:00,60.1,56.5,30.12,SSE,148,0.0,2.0,88,0.00,,SKC,0.00,0.00,VWS V14.01,2013-11-11 00:36:00,
2013-11-10 18:40:00,59.8,56.6,30.15,SSE,148,2.0,7.0,89,0.00,,SKC,0.00,0.00,VWS V14.01,2013-11-11 00:40:00,
2013-11-10 18:41:00,60.0,56.4,30.14,SSE,148,0.0,5.0,88,0.00,,SKC,0.00,0.00,VWS V14.01,2013-11-11 00:41:00,
2013-11-10 18:46:00,60.0,56.4,30.14,SSE,148,0.0,5.0,88,0.00,,SKC,0.00,0.00,VWS V14.01,2013-11-11 00:46:00,
2013-11-10 18:50:00,59.5,56.3,30.15,SSE,148,2.0,6.0,89,0.00,,SKC,0.00,0.00,VWS V14.01,2013-11-11 00:50:00,
2013-11-10 18:51:00,59.9,56.7,30.14,SSE,148,0.0,5.0,89,0.00,,SKC,0.00,0.00,VWS V14.01,2013-11-11 00:51:00,
2013-11-10 18:56:00,60.0,56.8,30.14,SSE,148,1.0,5.0,89,0.00,,SKC,0.00,0.00,VWS V14.01,2013-11-11 00:56:00,
2013-11-10 19:00:00,59.4,56.5,30.15,SSE,148,0.0,6.0,90,0.00,,SKC,0.00,0.00,VWS V14.01,2013-11-11 01:00:00,
2013-11-10 19:01:00,60.0,56.8,30.14,SSE,148,2.0,6.0,89,0.00,,SKC,0.00,0.00,VWS V14.01,2013-11-11 01:01:00,
2013-11-10 19:06:00,60.0,56.8,30.15,SSE,148,0.0,4.0,89,0.00,,SKC,0.00,0.00,VWS V14.01,2013-11-11 01:06:00,
2013-11-10 19:10:00,59.2,56.3,30.16,SSE,148,0.0,7.0,90,0.00,,SKC,0.00,0.00,VWS V14.01,2013-11-11 01:10:00,
2013-11-10 19:11:00,60.0,56.8,30.15,SSE,148,0.0,5.0,89,0.00,,SKC,0.00,0.00,VWS V14.01,2013-11-11 01:11:00,
2013-11-10 19:16:00,60.0,56.8,30.15,SSE,148,0.0,7.0,89,0.00,,SKC,0.00,0.00,VWS V14.01,2013-11-11 01:16:00,
2013-11-10 19:20:00,58.9,56.0,30.16,SSE,148,1.0,5.0,90,0.00,,SKC,0.00,0.00,VWS V14.01,2013-11-11 01:20:00,
2013-11-10 19:21:00,59.9,56.7,30.15,SSE,148,2.0,7.0,89,0.00,,SKC,0.00,0.00,VWS V14.01,2013-11-11 01:21:00,
2013-11-10 19:26:00,59.9,56.7,30.15,SSE,148,5.0,6.0,89,0.00,,SKC,0.00,0.00,VWS V14.01,2013-11-11 01:26:00,
2013-11-10 19:30:00,58.8,55.9,30.16,SSE,148,0.0,5.0,90,0.00,,SKC,0.00,0.00,VWS V14.01,2013-11-11 01:30:00,
2013-11-10 19:31:00,59.9,56.7,30.15,SSE,148,0.0,6.0,89,0.00,,SKC,0.00,0.00,VWS V14.01,2013-11-11 01:31:00,
2013-11-10 19:36:00,59.8,56.6,30.15,SSE,148,0.0,6.0,89,0.00,,SKC,0.00,0.00,VWS V14.01,2013-11-11 01:36:00,
2013-11-10 19:40:00,59.8,56.6,30.15,SSE,148,0.0,7.0,89,0.00,,SKC,0.00,0.00,VWS V14.01,2013-11-11 01:40:00,
2013-11-10 19:45:00,59.6,56.4,30.15,SSE,148,4.0,6.0,89,0.00,,SKC,0.00,0.00,VWS V14.01,2013-11-11 01:45:00,
2013-11-10 19:50:00,59.6,56.4,30.15,SSE,148,4.0,6.0,89,0.00,,SKC,0.00,0.00,VWS V14.01,2013-11-11 01:50:00,
2013-11-10 19:55:00,59.5,56.3,30.15,SSE,148,0.0,6.0,89,0.00,,SKC,0.00,0.00,VWS V14.01,2013-11-11 01:55:00,
2013-11-10 20:00:00,59.4,56.5,30.15,SSE,148,0.0,6.0,90,0.00,,SKC,0.00,0.00,VWS V14.01,2013-11-11 02:00:00,
2013-11-10 20:05:00,59.3,56.4,30.15,SSE,148,0.0,7.0,90,0.00,,SKC,0.00,0.00,VWS V14.01,2013-11-11 02:05:00,
2013-11-10 20:10:00,59.2,56.3,30.16,SSE,148,0.0,7.0,90,0.00,,SKC,0.00,0.00,VWS V14.01,2013-11-11 02:10:00,
2013-11-10 20:15:00,59.1,56.2,30.16,SSE,148,0.0,5.0,90,0.00,,SKC,0.00,0.00,VWS V14.01,2013-11-11 02:15:00,
2013-11-10 20:20:00,59.0,56.1,30.16,SSE,148,0.0,5.0,90,0.00,,SKC,0.00,0.00,VWS V14.01,2013-11-11 02:20:00,
2013-11-10 20:25:00,58.9,56.0,30.16,SSE,148,0.0,5.0,90,0.00,,SKC,0.00,0.00,VWS V14.01,2013-11-11 02:25:00,
2013-11-10 20:30:00,58.8,55.9,30.16,SSE,148,0.0,5.0,90,0.00,,SKC,0.00,0.00,VWS V14.01,2013-11-11 02:30:00,
2013-11-10 20:35:00,58.7,56.1,30.16,SSE,148,0.0,4.0,91,0.00,,SKC,0.00,0.00,VWS V14.01,2013-11-11 02:35:00,
2013-11-10 20:40:00,58.6,56.0,30.16,SSE,148,0.0,4.0,91,0.00,,SKC,0.00,0.00,VWS V14.01,2013-11-11 02:40:00,
2013-11-10 20:45:00,58.5,55.9,30.16,SSE,148,0.0,5.0,91,0.00,,SKC,0.00,0.00,VWS V14.01,2013-11-11 02:45:00,
2013-11-10 20:50:00,58.4,55.8,30.16,SSE,148,2.0,5.0,91,0.00,,SKC,0.00,0.00,VWS V14.01,2013-11-11 02:50:00,
2013-11-10 20:55:00,58.3,55.7,30.16,SSE,148,0.0,4.0,91,0.00,,SKC,0.00,0.00,VWS V14.01,2013-11-11 02:55:00,
2013-11-10 21:00:00,58.2,55.0,30.16,SSE,148,5.0,6.0,89,0.00,,SKC,0.00,0.00,VWS V14.01,2013-11-11 03:00:00,
2013-11-10 21:01:00,58.2,55.9,30.16,SSE,148,1.0,4.0,92,0.00,,SKC,0.00,0.00,VWS V14.01,2013-11-11 03:01:00,
2013-11-10 21:06:00,58.2,55.9,30.16,SSE,148,0.0,4.0,92,0.00,,SKC,0.00,0.00,VWS V14.01,2013-11-11 03:06:00,
2013-11-10 21:10:00,58.2,55.0,30.16,SSE,148,4.0,5.0,89,0.00,,SKC,0.00,0.00,VWS V14.01,2013-11-11 03:10:00,
2013-11-10 21:11:00,58.2,55.9,30.16,SSE,148,0.0,6.0,92,0.00,,SKC,0.00,0.00,VWS V14.01,2013-11-11 03:11:00,
2013-11-10 21:16:00,58.2,55.9,30.16,SSE,148,0.0,4.0,92,0.00,,SKC,0.00,0.00,VWS V14.01,2013-11-11 03:16:00,
2013-11-10 21:20:00,58.2,55.0,30.16,SSE,148,6.0,6.0,89,0.00,,SKC,0.00,0.00,VWS V14.01,2013-11-11 03:20:00,
2013-11-10 21:21:00,58.1,55.8,30.16,SSE,148,2.0,5.0,92,0.00,,SKC,0.00,0.00,VWS V14.01,2013-11-11 03:21:00,
2013-11-10 21:26:00,58.1,55.5,30.16,SSE,148,2.0,4.0,91,0.00,,SKC,0.00,0.00,VWS V14.01,2013-11-11 03:26:00,
2013-11-10 21:30:00,58.2,55.0,30.17,SSE,148,5.0,7.0,89,0.00,,SKC,0.00,0.00,VWS V14.01,2013-11-11 03:30:00,
2013-11-10 21:31:00,58.1,55.5,30.16,SSE,148,0.0,6.0,91,0.00,,SKC,0.00,0.00,VWS V14.01,2013-11-11 03:31:00,
2013-11-10 21:36:00,58.1,55.5,30.16,SSE,148,0.0,5.0,91,0.00,,SKC,0.00,0.00,VWS V14.01,2013-11-11 03:36:00,
2013-11-10 21:40:00,58.1,54.9,30.17,SSE,148,2.0,6.0,89,0.00,,SKC,0.00,0.00,VWS V14.01,2013-11-11 03:40:00,
2013-11-10 21:41:00,58.1,55.2,30.16,SSE,148,2.0,6.0,90,0.00,,SKC,0.00,0.00,VWS V14.01,2013-11-11 03:41:00,
2013-11-10 21:46:00,58.2,55.3,30.16,SSE,148,0.0,5.0,90,0.00,,SKC,0.00,0.00,VWS V14.01,2013-11-11 03:46:00,
2013-11-10 21:50:00,58.2,55.0,30.17,SSE,148,4.0,5.0,89,0.00,,SKC,0.00,0.00,VWS V14.01,2013-11-11 03:50:00,
2013-11-10 21:51:00,58.2,55.3,30.16,SSE,148,0.0,5.0,90,0.00,,SKC,0.00,0.00,VWS V14.01,2013-11-11 03:51:00,
2013-11-10 21:56:00,58.2,55.0,30.16,SSE,148,1.0,6.0,89,0.00,,SKC,0.00,0.00,VWS V14.01,2013-11-11 03:56:00,
2013-11-10 22:00:00,58.2,55.0,30.17,SSE,148,2.0,6.0,89,0.00,,SKC,0.00,0.00,VWS V14.01,2013-11-11 04:00:00,
2013-11-10 22:01:00,58.2,55.0,30.16,SSE,148,5.0,6.0,89,0.00,,SKC,0.00,0.00,VWS V14.01,2013-11-11 04:01:00,
2013-11-10 22:06:00,58.2,55.0,30.16,SSE,148,0.0,5.0,89,0.00,,SKC,0.00,0.00,VWS V14.01,2013-11-11 04:06:00,
2013-11-10 22:10:00,58.1,54.6,30.17,SSE,148,0.0,5.0,88,0.00,,SKC,0.00,0.00,VWS V14.01,2013-11-11 04:10:00,
2013-11-10 22:11:00,58.2,55.0,30.16,SSE,148,0.0,5.0,89,0.00,,SKC,0.00,0.00,VWS V14.01,2013-11-11 04:11:00,
2013-11-10 22:16:00,58.2,55.0,30.16,SSE,148,5.0,6.0,89,0.00,,SKC,0.00,0.00,VWS V14.01,2013-11-11 04:16:00,
2013-11-10 22:20:00,57.9,54.4,30.16,SSE,148,2.0,7.0,88,0.00,,SKC,0.00,0.00,VWS V14.01,2013-11-11 04:20:00,
2013-11-10 22:21:00,58.2,55.0,30.16,SSE,148,5.0,6.0,89,0.00,,SKC,0.00,0.00,VWS V14.01,2013-11-11 04:21:00,
2013-11-10 22:26:00,58.2,55.0,30.17,SSE,148,4.0,7.0,89,0.00,,SKC,0.00,0.00,VWS V14.01,2013-11-11 04:26:00,
2013-11-10 22:30:00,57.8,54.3,30.16,SSE,148,5.0,7.0,88,0.00,,SKC,0.00,0.00,VWS V14.01,2013-11-11 04:30:00,
2013-11-10 22:31:00,58.2,55.0,30.17,SSE,148,5.0,7.0,89,0.00,,SKC,0.00,0.00,VWS V14.01,2013-11-11 04:31:00,
2013-11-10 22:36:00,58.1,54.9,30.17,SSE,148,2.0,6.0,89,0.00,,SKC,0.00,0.00,VWS V14.01,2013-11-11 04:36:00,
2013-11-10 22:40:00,57.9,54.4,30.16,SSE,148,0.0,6.0,88,0.00,,SKC,0.00,0.00,VWS V14.01,2013-11-11 04:40:00,
2013-11-10 22:41:00,58.1,54.9,30.17,SSE,148,4.0,6.0,89,0.00,,SKC,0.00,0.00,VWS V14.01,2013-11-11 04:41:00,
2013-11-10 22:46:00,58.1,54.9,30.17,SSE,148,2.0,5.0,89,0.00,,SKC,0.00,0.00,VWS V14.01,2013-11-11 04:46:00,
2013-11-10 22:50:00,57.8,54.6,30.16,SSE,148,1.0,6.0,89,0.00,,SKC,0.00,0.00,VWS V14.01,2013-11-11 04:50:00,
2013-11-10 22:51:00,58.2,55.0,30.17,SSE,148,5.0,5.0,89,0.00,,SKC,0.00,0.00,VWS V14.01,2013-11-11 04:51:00,
2013-11-10 22:56:00,58.2,55.0,30.17,SSE,148,2.0,6.0,89,0.00,,SKC,0.00,0.00,VWS V14.01,2013-11-11 04:56:00,
2013-11-10 23:00:00,57.5,54.3,30.15,SSE,148,0.0,7.0,89,0.00,,SKC,0.00,0.00,VWS V14.01,2013-11-11 05:00:00,
2013-11-10 23:01:00,58.1,54.9,30.17,SSE,148,0.0,6.0,89,0.00,,SKC,0.00,0.00,VWS V14.01,2013-11-11 05:01:00,
2013-11-10 23:02:00,58.2,55.0,30.17,SSE,148,2.0,6.0,89,0.00,,SKC,0.00,0.00,VWS V14.01,2013-11-11 05:02:00,
2013-11-10 23:03:00,58.1,54.9,30.17,SSE,148,1.0,4.0,89,0.00,,SKC,0.00,0.00,VWS V14.01,2013-11-11 05:03:00,
2013-11-10 23:08:00,58.1,54.9,30.17,SSE,148,4.0,5.0,89,0.00,,SKC,0.00,0.00,VWS V14.01,2013-11-11 05:08:00,
2013-11-10 23:10:00,57.5,54.6,30.15,SSE,148,0.0,5.0,90,0.00,,SKC,0.00,0.00,VWS V14.01,2013-11-11 05:10:00,
2013-11-10 23:13:00,58.0,54.5,30.16,SSE,148,5.0,7.0,88,0.00,,SKC,0.00,0.00,VWS V14.01,2013-11-11 05:13:00,
2013-11-10 23:18:00,57.9,54.4,30.16,SSE,148,2.0,7.0,88,0.00,,SKC,0.00,0.00,VWS V14.01,2013-11-11 05:18:00,
2013-11-10 23:20:00,57.3,54.4,30.14,SSE,148,0.0,6.0,90,0.00,,SKC,0.00,0.00,VWS V14.01,2013-11-11 05:20:00,
2013-11-10 23:23:00,57.9,54.4,30.16,SSE,148,5.0,5.0,88,0.00,,SKC,0.00,0.00,VWS V14.01,2013-11-11 05:23:00,
2013-11-10 23:28:00,57.9,54.4,30.16,SSE,148,0.0,5.0,88,0.00,,SKC,0.00,0.00,VWS V14.01,2013-11-11 05:28:00,
2013-11-10 23:30:00,57.3,54.4,30.15,SSE,148,0.0,5.0,90,0.00,,SKC,0.00,0.00,VWS V14.01,2013-11-11 05:30:00,
2013-11-10 23:33:00,57.9,54.4,30.16,SSE,148,1.0,5.0,88,0.00,,SKC,0.00,0.00,VWS V14.01,2013-11-11 05:33:00,
2013-11-10 23:38:00,57.9,54.4,30.16,SSE,148,0.0,6.0,88,0.00,,SKC,0.00,0.00,VWS V14.01,2013-11-11 05:38:00,
2013-11-10 23:40:00,57.4,54.2,30.14,SSE,148,1.0,6.0,89,0.00,,SKC,0.00,0.00,VWS V14.01,2013-11-11 05:40:00,
2013-11-10 23:43:00,57.9,54.4,30.16,SSE,148,1.0,4.0,88,0.00,,SKC,0.00,0.00,VWS V14.01,2013-11-11 05:43:00,
2013-11-10 23:48:00,57.8,54.6,30.16,SSE,148,0.0,6.0,89,0.00,,SKC,0.00,0.00,VWS V14.01,2013-11-11 05:48:00,
2013-11-10 23:50:00,57.5,54.3,30.15,SSE,148,0.0,7.0,89,0.00,,SKC,0.00,0.00,VWS V14.01,2013-11-11 05:50:00,
2013-11-10 23:53:00,57.8,54.6,30.16,SSE,148,4.0,4.0,89,0.00,,SKC,0.00,0.00,VWS V14.01,2013-11-11 05:53:00,
2013-11-10 23:58:00,57.7,54.5,30.15,SSE,148,0.0,5.0,89,0.00,,SKC,0.00,0.00,VWS V14.01,2013-11-11 05:58:00,